createdAt,value
2018-07-15T00:02:25.969Z,17.48
2018-07-15T00:04:55.574Z,17.38
2018-07-15T00:07:25.375Z,17.33
2018-07-15T00:09:54.603Z,17.32
2018-07-15T00:12:23.701Z,17.27
2018-07-15T00:14:53.192Z,17.25
2018-07-15T00:17:23.496Z,17.24
2018-07-15T00:19:52.546Z,17.26
2018-07-15T00:22:21.740Z,17.29
2018-07-15T00:24:50.831Z,17.32
2018-07-15T00:27:21.150Z,17.31
2018-07-15T00:29:51.075Z,17.28
2018-07-15T00:32:21.047Z,17.24
2018-07-15T00:34:50.961Z,17.26
2018-07-15T00:37:21.215Z,17.22
2018-07-15T00:39:51.683Z,17.24
2018-07-15T00:42:21.118Z,17.25
2018-07-15T00:44:51.419Z,17.25
2018-07-15T00:47:21.184Z,17.24
2018-07-15T00:49:51.610Z,17.21
2018-07-15T00:52:21.206Z,17.21
2018-07-15T00:54:51.563Z,17.26
2018-07-15T00:57:21.057Z,17.19
2018-07-15T00:59:51.276Z,17.11
2018-07-15T01:02:21.948Z,17.04
2018-07-15T01:04:51.084Z,17.07
2018-07-15T01:07:21.081Z,17.09
2018-07-15T01:09:51.079Z,16.98
2018-07-15T01:12:21.075Z,16.91
2018-07-15T01:14:52.460Z,16.83
2018-07-15T01:17:22.258Z,16.80
2018-07-15T01:19:52.702Z,16.76
2018-07-15T01:22:22.748Z,16.69
2018-07-15T01:24:53.674Z,16.65
2018-07-15T01:27:23.755Z,16.63
2018-07-15T01:29:53.842Z,16.60
2018-07-15T01:32:24.382Z,16.55
2018-07-15T01:34:55.084Z,16.52
2018-07-15T01:37:25.642Z,16.49
2018-07-15T01:39:55.916Z,16.50
2018-07-15T01:42:26.381Z,16.48
2018-07-15T01:44:56.457Z,16.46
2018-07-15T01:47:27.432Z,16.43
2018-07-15T01:49:57.589Z,16.40
2018-07-15T01:52:28.412Z,16.35
2018-07-15T01:54:57.632Z,16.28
2018-07-15T01:57:27.117Z,16.26
2018-07-15T01:59:57.169Z,16.24
2018-07-15T02:02:27.820Z,16.24
2018-07-15T02:04:58.414Z,16.22
2018-07-15T02:07:28.045Z,16.23
2018-07-15T02:09:58.672Z,16.26
2018-07-15T02:12:29.656Z,16.26
2018-07-15T02:14:58.886Z,16.22
2018-07-15T02:17:29.546Z,16.20
2018-07-15T02:20:00.358Z,16.21
2018-07-15T02:22:29.656Z,16.20
2018-07-15T02:25:00.551Z,16.25
2018-07-15T02:27:31.011Z,16.29
2018-07-15T02:30:00.803Z,16.27
2018-07-15T02:32:31.850Z,16.25
2018-07-15T02:35:02.403Z,16.21
2018-07-15T02:37:32.505Z,16.17
2018-07-15T02:40:04.077Z,16.08
2018-07-15T02:42:34.751Z,16.04
2018-07-15T02:45:04.543Z,16.03
2018-07-15T02:47:34.887Z,15.92
2018-07-15T02:50:05.232Z,15.88
2018-07-15T02:52:35.160Z,15.76
2018-07-15T02:55:04.621Z,15.73
2018-07-15T02:57:34.097Z,15.74
2018-07-15T03:00:03.790Z,15.74
2018-07-15T03:02:32.855Z,15.73
2018-07-15T03:05:03.671Z,15.70
2018-07-15T03:07:34.551Z,15.71
2018-07-15T03:10:05.314Z,15.72
2018-07-15T03:12:35.759Z,15.66
2018-07-15T03:15:06.505Z,15.69
2018-07-15T03:17:35.922Z,15.69
2018-07-15T03:20:06.313Z,15.71
2018-07-15T03:22:35.712Z,15.75
2018-07-15T03:25:05.271Z,15.76
2018-07-15T03:27:34.331Z,15.74
2018-07-15T03:30:03.846Z,15.74
2018-07-15T03:32:32.975Z,15.77
2018-07-15T03:35:01.995Z,15.77
2018-07-15T03:37:31.038Z,15.77
2018-07-15T03:40:00.375Z,15.75
2018-07-15T03:42:29.334Z,15.77
2018-07-15T03:44:59.238Z,15.78
2018-07-15T03:47:28.535Z,15.78
2018-07-15T03:49:59.095Z,15.78
2018-07-15T03:52:29.484Z,15.80
2018-07-15T03:54:59.626Z,15.83
2018-07-15T03:57:30.458Z,15.89
2018-07-15T04:00:00.615Z,15.93
2018-07-15T04:02:31.329Z,15.95
2018-07-15T04:05:01.933Z,15.95
2018-07-15T04:07:32.058Z,16.00
2018-07-15T04:10:01.106Z,16.04
2018-07-15T04:12:31.049Z,16.08
2018-07-15T04:15:00.302Z,16.13
2018-07-15T04:17:29.462Z,16.18
2018-07-15T04:19:58.528Z,16.18
2018-07-15T04:22:28.014Z,16.19
2018-07-15T04:24:58.388Z,16.23
2018-07-15T04:27:28.011Z,16.22
2018-07-15T04:29:58.487Z,16.20
2018-07-15T04:32:28.247Z,16.11
2018-07-15T04:34:58.837Z,16.17
2018-07-15T04:37:30.593Z,16.18
2018-07-15T04:39:59.869Z,16.07
2018-07-15T04:42:29.959Z,16.11
2018-07-15T04:45:00.593Z,16.15
2018-07-15T04:47:30.033Z,16.20
2018-07-15T04:50:01.154Z,16.19
2018-07-15T04:52:30.554Z,16.24
2018-07-15T04:55:01.340Z,16.25
2018-07-15T04:57:30.987Z,16.28
2018-07-15T05:00:01.384Z,16.33
2018-07-15T05:02:31.741Z,16.37
2018-07-15T05:05:01.076Z,16.38
2018-07-15T05:07:31.535Z,16.41
2018-07-15T05:10:00.886Z,16.37
2018-07-15T05:12:31.310Z,16.44
2018-07-15T05:15:01.719Z,16.51
2018-07-15T05:17:32.363Z,16.58
2018-07-15T05:20:03.164Z,16.66
2018-07-15T05:22:33.448Z,16.75
2018-07-15T05:25:04.227Z,16.73
2018-07-15T05:27:33.346Z,16.76
2018-07-15T05:30:03.072Z,16.81
2018-07-15T05:32:32.186Z,16.91
2018-07-15T05:35:01.815Z,16.99
2018-07-15T05:37:31.221Z,17.10
2018-07-15T05:40:01.591Z,17.14
2018-07-15T05:42:30.941Z,17.23
2018-07-15T05:45:00.860Z,17.29
2018-07-15T05:47:30.617Z,17.38
2018-07-15T05:49:59.964Z,17.44
2018-07-15T05:52:30.385Z,17.53
2018-07-15T05:54:59.620Z,17.62
2018-07-15T05:57:29.894Z,17.67
2018-07-15T05:59:59.226Z,17.71
2018-07-15T06:02:29.899Z,17.77
2018-07-15T06:04:59.231Z,17.83
2018-07-15T06:07:30.412Z,17.92
2018-07-15T06:10:01.278Z,17.99
2018-07-15T06:12:31.989Z,18.09
2018-07-15T06:15:03.062Z,18.16
2018-07-15T06:17:33.770Z,18.25
2018-07-15T06:20:03.614Z,18.35
2018-07-15T06:22:32.665Z,18.43
2018-07-15T06:25:01.775Z,18.50
2018-07-15T06:27:31.567Z,18.61
2018-07-15T06:30:01.412Z,18.71
2018-07-15T06:32:31.022Z,18.76
2018-07-15T06:35:00.437Z,18.83
2018-07-15T06:37:29.914Z,18.93
2018-07-15T06:39:59.505Z,19.06
2018-07-15T06:42:28.574Z,19.05
2018-07-15T06:44:57.689Z,19.09
2018-07-15T06:47:26.970Z,19.13
2018-07-15T06:49:56.445Z,19.23
2018-07-15T06:52:26.324Z,19.31
2018-07-15T06:54:56.006Z,19.41
2018-07-15T06:57:25.821Z,19.48
2018-07-15T06:59:56.402Z,19.52
2018-07-15T07:02:27.101Z,19.59
2018-07-15T07:04:57.417Z,19.67
2018-07-15T07:07:28.145Z,19.84
2018-07-15T07:09:58.811Z,20.04
2018-07-15T07:12:29.253Z,20.09
2018-07-15T07:14:59.080Z,20.18
2018-07-15T07:17:29.804Z,20.28
2018-07-15T07:20:00.237Z,20.37
2018-07-15T07:22:30.833Z,20.43
2018-07-15T07:25:01.545Z,20.47
2018-07-15T07:27:30.997Z,20.58
2018-07-15T07:30:00.473Z,20.73
2018-07-15T07:32:29.532Z,20.80
2018-07-15T07:34:58.619Z,20.93
2018-07-15T07:37:27.770Z,21.04
2018-07-15T07:39:56.890Z,21.09
2018-07-15T07:42:26.790Z,21.25
2018-07-15T07:44:55.919Z,21.25
2018-07-15T07:47:24.989Z,21.28
2018-07-15T07:49:54.068Z,21.43
2018-07-15T08:05:17.852Z,21.52
2018-07-15T08:20:41.360Z,21.80
2018-07-15T08:23:10.929Z,22.29
2018-07-15T08:25:40.029Z,22.39
2018-07-15T08:28:09.133Z,22.46
2018-07-15T08:30:49.245Z,22.59
2018-07-15T08:33:18.406Z,22.71
2018-07-15T08:35:47.471Z,22.79
2018-07-15T08:38:16.524Z,22.86
2018-07-15T08:40:45.659Z,22.95
2018-07-15T08:43:14.648Z,22.99
2018-07-15T08:45:43.896Z,23.13
2018-07-15T08:48:13.275Z,23.17
2018-07-15T08:50:42.463Z,23.28
2018-07-15T08:53:11.504Z,23.36
2018-07-15T08:55:40.737Z,23.43
2018-07-15T08:58:10.156Z,23.51
2018-07-15T09:00:39.219Z,23.61
2018-07-15T09:03:08.365Z,23.67
2018-07-15T09:05:37.421Z,23.73
2018-07-15T09:08:06.815Z,23.70
2018-07-15T09:10:36.333Z,23.74
2018-07-15T09:13:05.844Z,23.85
2018-07-15T09:15:35.086Z,23.88
2018-07-15T09:18:04.625Z,23.95
2018-07-15T09:20:34.505Z,24.02
2018-07-15T09:23:04.689Z,24.07
2018-07-15T09:25:33.959Z,24.10
2018-07-15T09:28:03.031Z,24.17
2018-07-15T09:30:32.179Z,24.36
2018-07-15T09:33:01.309Z,24.48
2018-07-15T09:35:30.759Z,24.61
2018-07-15T09:38:00.087Z,24.57
2018-07-15T09:40:29.313Z,24.53
2018-07-15T09:42:58.444Z,24.53
2018-07-15T09:45:27.493Z,24.66
2018-07-15T09:47:56.616Z,24.70
2018-07-15T09:50:26.134Z,24.77
2018-07-15T09:52:55.235Z,24.81
2018-07-15T09:55:24.613Z,24.90
2018-07-15T09:57:54.616Z,24.94
2018-07-15T10:00:29.893Z,24.96
2018-07-15T10:02:58.998Z,25.04
2018-07-15T10:05:28.062Z,25.09
2018-07-15T10:07:57.202Z,25.17
2018-07-15T10:10:26.708Z,25.21
2018-07-15T10:12:56.162Z,25.32
2018-07-15T10:15:25.264Z,25.44
2018-07-15T10:17:54.509Z,25.56
2018-07-15T10:20:24.633Z,25.70
2018-07-15T10:22:54.708Z,25.77
2018-07-15T10:25:23.811Z,25.66
2018-07-15T10:27:52.914Z,25.44
2018-07-15T10:30:21.958Z,25.36
2018-07-15T10:32:51.114Z,25.47
2018-07-15T10:35:20.245Z,25.63
2018-07-15T10:37:49.337Z,25.74
2018-07-15T10:40:18.467Z,25.85
2018-07-15T10:42:47.586Z,25.97
2018-07-15T10:45:16.694Z,26.01
2018-07-15T10:47:45.781Z,25.99
2018-07-15T10:50:14.794Z,25.92
2018-07-15T10:52:43.863Z,25.69
2018-07-15T10:55:12.892Z,25.52
2018-07-15T10:57:42.099Z,25.42
2018-07-15T11:00:11.155Z,25.39
2018-07-15T11:02:40.561Z,25.39
2018-07-15T11:05:09.705Z,25.57
2018-07-15T11:07:38.767Z,25.64
2018-07-15T11:10:07.857Z,25.88
2018-07-15T11:12:37.369Z,26.21
2018-07-15T11:15:06.922Z,26.38
2018-07-15T11:17:36.417Z,26.37
2018-07-15T11:20:05.504Z,26.29
2018-07-15T11:22:34.654Z,26.30
2018-07-15T11:25:04.015Z,26.40
2018-07-15T11:27:33.061Z,26.58
2018-07-15T11:30:02.411Z,26.69
2018-07-15T11:32:31.440Z,26.66
2018-07-15T11:35:00.553Z,26.73
2018-07-15T11:37:29.986Z,26.71
2018-07-15T11:39:59.029Z,26.78
2018-07-15T11:42:28.195Z,26.98
2018-07-15T11:44:57.269Z,27.19
2018-07-15T11:47:26.795Z,27.28
2018-07-15T11:49:56.725Z,27.40
2018-07-15T11:52:26.613Z,27.55
2018-07-15T11:54:56.429Z,27.75
2018-07-15T11:57:26.861Z,27.80
2018-07-15T11:59:56.749Z,27.78
2018-07-15T12:02:26.327Z,27.86
2018-07-15T12:04:56.601Z,28.03
2018-07-15T12:07:26.828Z,28.10
2018-07-15T12:09:56.466Z,28.19
2018-07-15T12:12:26.939Z,28.16
2018-07-15T12:14:56.518Z,28.10
2018-07-15T12:17:26.589Z,28.16
2018-07-15T12:19:56.950Z,28.09
2018-07-15T12:22:26.841Z,27.95
2018-07-15T12:24:56.794Z,27.86
2018-07-15T12:27:27.070Z,27.66
2018-07-15T12:29:57.011Z,27.53
2018-07-15T12:32:26.891Z,27.37
2018-07-15T12:34:57.168Z,27.36
2018-07-15T12:37:27.165Z,27.46
2018-07-15T12:39:56.708Z,27.64
2018-07-15T12:42:27.037Z,27.67
2018-07-15T12:44:56.760Z,27.63
2018-07-15T12:47:26.839Z,27.62
2018-07-15T12:49:57.141Z,27.59
2018-07-15T12:52:26.970Z,27.53
2018-07-15T12:54:57.018Z,27.46
2018-07-15T12:57:27.184Z,27.51
2018-07-15T12:59:57.166Z,27.53
2018-07-15T13:02:27.374Z,27.62
2018-07-15T13:04:58.150Z,27.71
2018-07-15T13:07:27.396Z,27.88
2018-07-15T13:09:57.226Z,28.10
2018-07-15T13:12:27.723Z,28.20
2018-07-15T13:14:57.498Z,28.21
2018-07-15T13:17:27.243Z,28.21
2018-07-15T13:19:57.269Z,28.14
2018-07-15T13:22:27.320Z,28.09
2018-07-15T13:24:57.547Z,28.07
2018-07-15T13:27:27.187Z,27.98
2018-07-15T13:29:57.330Z,27.98
2018-07-15T13:32:27.588Z,27.66
2018-07-15T13:34:57.275Z,27.26
2018-07-15T13:37:27.535Z,26.84
2018-07-15T13:39:57.638Z,26.55
2018-07-15T13:42:27.710Z,26.13
2018-07-15T13:44:57.476Z,25.96
2018-07-15T13:47:27.493Z,25.98
2018-07-15T13:49:57.442Z,25.80
2018-07-15T13:52:27.750Z,25.51
2018-07-15T13:54:57.940Z,25.11
2018-07-15T13:57:27.970Z,25.05
2018-07-15T13:59:57.657Z,25.10
2018-07-15T14:02:28.499Z,25.03
2018-07-15T14:04:58.017Z,24.97
2018-07-15T14:07:28.030Z,24.81
2018-07-15T14:09:57.914Z,24.67
2018-07-15T14:12:27.583Z,24.70
2018-07-15T14:14:56.941Z,24.69
2018-07-15T14:17:25.988Z,24.52
2018-07-15T14:19:55.016Z,24.45
2018-07-15T14:22:27.006Z,24.43
2018-07-15T14:24:56.220Z,24.32
2018-07-15T14:27:25.313Z,24.25
2018-07-15T14:29:54.800Z,24.18
2018-07-15T14:32:23.907Z,24.09
2018-07-15T14:34:53.393Z,23.89
2018-07-15T14:37:22.557Z,23.74
2018-07-15T14:39:52.840Z,23.63
2018-07-15T14:42:22.410Z,23.64
2018-07-15T14:44:51.883Z,23.60
2018-07-15T14:47:21.325Z,23.46
2018-07-15T14:49:50.851Z,23.36
2018-07-15T14:52:20.401Z,23.31
2018-07-15T14:54:49.596Z,23.31
2018-07-15T14:57:19.011Z,23.32
2018-07-15T14:59:48.125Z,23.26
2018-07-15T15:02:17.449Z,23.23
2018-07-15T15:04:46.805Z,23.19
2018-07-15T15:07:16.205Z,23.13
2018-07-15T15:09:45.699Z,23.02
2018-07-15T15:12:15.219Z,22.91
2018-07-15T15:14:44.799Z,22.81
2018-07-15T15:17:15.208Z,22.68
2018-07-15T15:19:44.594Z,22.58
2018-07-15T15:22:14.018Z,22.44
2018-07-15T15:24:43.115Z,22.29
2018-07-15T15:27:12.851Z,22.16
2018-07-15T15:29:42.045Z,22.08
2018-07-15T15:32:11.304Z,21.97
2018-07-15T15:34:40.428Z,21.89
2018-07-15T15:37:09.628Z,21.79
2018-07-15T15:39:39.625Z,21.69
2018-07-15T15:42:08.924Z,21.63
2018-07-15T15:44:38.294Z,21.63
2018-07-15T15:47:07.405Z,21.60
2018-07-15T15:49:37.202Z,21.55
2018-07-15T15:52:06.759Z,21.46
2018-07-15T15:54:36.001Z,21.37
2018-07-15T15:57:05.333Z,21.30
2018-07-15T15:59:34.960Z,21.40
2018-07-15T16:02:04.172Z,21.41
2018-07-15T16:04:33.850Z,21.46
2018-07-15T16:07:03.873Z,21.51
2018-07-15T16:09:33.021Z,21.53
2018-07-15T16:12:02.160Z,21.46
2018-07-15T16:14:31.535Z,21.44
2018-07-15T16:17:00.702Z,21.60
2018-07-15T16:19:29.805Z,21.96
2018-07-15T16:21:58.995Z,22.47
2018-07-15T16:24:29.428Z,22.91
2018-07-15T16:27:00.069Z,23.21
2018-07-15T16:29:30.074Z,23.31
2018-07-15T16:32:00.067Z,23.03
2018-07-15T16:34:30.732Z,22.82
2018-07-15T16:37:00.302Z,22.60
2018-07-15T16:39:31.220Z,22.42
2018-07-15T16:42:00.715Z,22.24
2018-07-15T16:44:29.846Z,22.14
2018-07-15T16:46:59.296Z,22.10
2018-07-15T16:49:29.572Z,22.04
2018-07-15T16:51:59.382Z,22.03
2018-07-15T16:54:29.362Z,21.95
2018-07-15T16:56:59.192Z,21.92
2018-07-15T16:59:29.314Z,21.81
2018-07-15T17:01:59.637Z,21.66
2018-07-15T17:04:29.441Z,21.55
2018-07-15T17:06:59.873Z,21.54
2018-07-15T17:09:29.667Z,21.53
2018-07-15T17:11:59.377Z,21.58
2018-07-15T17:14:29.661Z,21.66
2018-07-15T17:16:59.574Z,21.72
2018-07-15T17:19:29.873Z,21.75
2018-07-15T17:21:59.473Z,21.76
2018-07-15T17:24:29.576Z,21.79
2018-07-15T17:27:00.072Z,21.76
2018-07-15T17:29:30.352Z,21.74
2018-07-15T17:31:59.903Z,21.67
2018-07-15T17:34:29.791Z,21.63
2018-07-15T17:36:59.882Z,21.60
2018-07-15T17:39:29.731Z,21.54
2018-07-15T17:41:59.903Z,21.53
2018-07-15T17:44:30.240Z,21.46
2018-07-15T17:46:59.775Z,21.45
2018-07-15T17:49:30.018Z,21.45
2018-07-15T17:51:59.834Z,21.43
2018-07-15T17:54:30.213Z,21.41
2018-07-15T17:57:00.154Z,21.37
2018-07-15T17:59:30.047Z,21.35
2018-07-15T18:01:59.942Z,21.29
2018-07-15T18:04:30.432Z,21.23
2018-07-15T18:07:00.470Z,21.18
2018-07-15T18:09:29.875Z,21.17
2018-07-15T18:12:00.112Z,21.13
2018-07-15T18:14:30.114Z,21.09
2018-07-15T18:17:00.012Z,21.06
2018-07-15T18:19:30.231Z,21.04
2018-07-15T18:22:00.932Z,21.01
2018-07-15T18:24:30.568Z,20.98
2018-07-15T18:27:00.998Z,20.95
2018-07-15T18:29:31.675Z,20.92
2018-07-15T18:32:00.818Z,20.88
2018-07-15T18:34:30.464Z,20.84
2018-07-15T18:37:01.035Z,20.79
2018-07-15T18:39:31.301Z,20.70
2018-07-15T18:42:01.456Z,20.54
2018-07-15T18:44:31.805Z,20.37
2018-07-15T18:47:02.604Z,20.27
2018-07-15T18:49:32.811Z,20.22
2018-07-15T18:52:01.923Z,20.16
2018-07-15T18:54:31.352Z,20.15
2018-07-15T18:57:00.468Z,20.14
2018-07-15T18:59:33.813Z,20.06
2018-07-15T19:02:04.758Z,20.05
2018-07-15T19:04:35.408Z,19.97
2018-07-15T19:07:05.372Z,19.92
2018-07-15T19:09:35.560Z,19.88
2018-07-15T19:12:04.904Z,19.88
2018-07-15T19:14:36.338Z,19.87
2018-07-15T19:17:05.765Z,19.86
2018-07-15T19:19:38.472Z,19.85
2018-07-15T19:22:09.677Z,19.82
2018-07-15T19:24:38.965Z,19.80
2018-07-15T19:27:09.297Z,19.79
2018-07-15T19:29:40.202Z,19.75
2018-07-15T19:32:10.128Z,19.71
2018-07-15T19:34:41.033Z,19.67
2018-07-15T19:37:11.147Z,19.64
2018-07-15T19:39:41.692Z,19.60
2018-07-15T19:42:12.562Z,19.56
2018-07-15T19:44:42.908Z,19.51
2018-07-15T19:47:13.080Z,19.45
2018-07-15T19:49:42.221Z,19.40
2018-07-15T19:52:12.859Z,19.37
2018-07-15T19:54:41.919Z,19.34
2018-07-15T19:57:12.541Z,19.33
2018-07-15T19:59:41.663Z,19.30
2018-07-15T20:02:12.383Z,19.29
2018-07-15T20:04:42.400Z,19.24
2018-07-15T20:07:13.371Z,19.20
2018-07-15T20:09:42.490Z,19.16
2018-07-15T20:12:11.614Z,19.09
2018-07-15T20:14:42.144Z,19.09
2018-07-15T20:17:12.415Z,19.06
2018-07-15T20:19:43.440Z,19.03
2018-07-15T20:22:13.865Z,18.98
2018-07-15T20:24:44.884Z,18.96
2018-07-15T20:27:13.918Z,18.95
2018-07-15T20:29:43.480Z,18.90
2018-07-15T20:32:12.856Z,18.86
2018-07-15T20:34:42.765Z,18.79
2018-07-15T20:37:11.937Z,18.66
2018-07-15T20:39:41.020Z,18.63
2018-07-15T20:42:10.121Z,18.58
2018-07-15T20:44:39.976Z,18.54
2018-07-15T20:47:09.113Z,18.51
2018-07-15T20:49:39.644Z,18.51
2018-07-15T20:52:08.861Z,18.49
2018-07-15T20:54:38.143Z,18.44
2018-07-15T20:57:08.071Z,18.43
2018-07-15T20:59:37.350Z,18.40
2018-07-15T21:02:06.669Z,18.34
2018-07-15T21:04:37.112Z,18.30
2018-07-15T21:07:07.396Z,18.26
2018-07-15T21:09:37.708Z,18.19
2018-07-15T21:12:08.280Z,18.11
2018-07-15T21:14:38.171Z,18.04
2018-07-15T21:17:07.463Z,18.01
2018-07-15T21:19:37.799Z,17.96
2018-07-15T21:22:07.641Z,17.93
2018-07-15T21:24:38.166Z,17.87
2018-07-15T21:27:07.408Z,17.84
2018-07-15T21:29:36.584Z,17.83
2018-07-15T21:32:05.701Z,17.84
2018-07-15T21:34:35.185Z,17.83
2018-07-15T21:37:05.420Z,17.79
2018-07-15T21:39:34.663Z,17.77
2018-07-15T21:42:06.117Z,17.79
2018-07-15T21:47:36.424Z,17.80
2018-07-15T21:50:06.721Z,17.80
2018-07-15T21:52:37.128Z,17.80
2018-07-15T21:55:07.280Z,17.77
2018-07-15T21:57:37.777Z,17.77
2018-07-15T22:00:08.421Z,17.76
2018-07-15T22:02:38.077Z,17.73
2018-07-15T22:05:08.954Z,17.68
2018-07-15T22:07:49.917Z,17.62
2018-07-15T22:10:53.260Z,17.57
2018-07-15T22:13:23.859Z,17.56
2018-07-15T22:15:53.214Z,17.52
2018-07-15T22:18:22.234Z,17.51
2018-07-15T22:20:52.837Z,17.46
2018-07-15T22:23:23.409Z,17.47
2018-07-15T22:25:54.059Z,17.50
2018-07-15T22:28:25.050Z,17.53
2018-07-15T22:30:54.919Z,17.54
2018-07-15T22:33:25.409Z,17.56
2018-07-15T22:35:55.281Z,17.54
2018-07-15T22:38:24.491Z,17.52
2018-07-15T22:40:54.927Z,17.47
2018-07-15T22:43:25.642Z,17.46
2018-07-15T22:45:54.697Z,17.39
2018-07-15T22:48:25.595Z,17.30
2018-07-15T22:50:57.214Z,17.21
2018-07-15T22:53:26.552Z,17.17
2018-07-15T22:55:56.293Z,17.11
2018-07-15T22:58:27.133Z,17.08
2018-07-15T23:00:57.969Z,17.08
2018-07-15T23:03:28.227Z,17.08
2018-07-15T23:06:08.244Z,17.15
2018-07-15T23:08:39.267Z,17.16
2018-07-15T23:11:09.771Z,17.16
2018-07-15T23:13:39.703Z,17.15
2018-07-15T23:16:10.746Z,17.14
2018-07-15T23:18:40.059Z,17.14
2018-07-15T23:21:09.136Z,17.15
2018-07-15T23:23:39.661Z,17.15
2018-07-15T23:26:10.206Z,17.11
2018-07-15T23:28:40.420Z,17.05
2018-07-15T23:31:11.249Z,17.03
2018-07-15T23:33:41.976Z,17.05
2018-07-15T23:36:12.630Z,17.03
2018-07-15T23:38:41.664Z,17.05
2018-07-15T23:41:11.317Z,17.05
2018-07-15T23:43:41.665Z,17.03
2018-07-15T23:46:12.290Z,17.03
2018-07-15T23:48:41.505Z,17.04
2018-07-15T23:51:11.294Z,17.04
2018-07-15T23:53:42.178Z,17.04
2018-07-15T23:56:11.651Z,17.03
2018-07-15T23:58:41.157Z,16.94
